Time;durP1;ratioP1;P1;durP2;ratioP2;P2;SDS_P1;SDS_P2;PMS_P1;PMS_P2;Temp;Humidity;BMP_temperature;BMP_pressure;BME280_temperature;BME280_humidity;BME280_pressure;Samples;Min_cycle;Max_cycle;Signal;HPM_P1;HPM_P2
2022/10/04 00:00:46;;;;;;;8.70;2.90;;;9.60;99.90;;;;;;5063131;28;20191;-80
2022/10/04 00:03:24;;;;;;;6.23;3.27;;;9.60;99.90;;;;;;5064853;28;20669;-80
2022/10/04 00:05:54;;;;;;;7.53;2.63;;;9.70;99.90;;;;;;5063235;28;20164;-80
2022/10/04 00:08:34;;;;;;;8.93;2.77;;;9.70;99.90;;;;;;5060784;28;20172;-80
2022/10/04 00:11:07;;;;;;;6.90;2.17;;;9.70;99.90;;;;;;5061261;28;20160;-80
2022/10/04 00:13:34;;;;;;;9.87;2.40;;;9.70;99.90;;;;;;5060280;28;20196;-79
2022/10/04 00:16:01;;;;;;;11.30;2.53;;;9.80;99.90;;;;;;5059881;28;20229;-80
2022/10/04 00:18:36;;;;;;;8.33;2.60;;;9.80;99.90;;;;;;5065607;28;20187;-80
2022/10/04 00:21:04;;;;;;;9.50;2.40;;;9.80;99.90;;;;;;5080600;28;20644;-81
2022/10/04 00:23:36;;;;;;;8.87;2.50;;;9.80;99.90;;;;;;5079136;28;20275;-80
2022/10/04 00:26:13;;;;;;;5.70;2.60;;;9.80;99.90;;;;;;5080515;28;20179;-78
2022/10/04 00:28:44;;;;;;;4.40;2.33;;;9.80;99.90;;;;;;5083349;28;20195;-79
2022/10/04 00:31:18;;;;;;;8.93;2.33;;;9.80;99.90;;;;;;5081371;28;20152;-79
2022/10/04 00:34:16;;;;;;;6.47;2.53;;;9.80;99.90;;;;;;5080666;28;20288;-80
2022/10/04 00:36:50;;;;;;;11.50;2.93;;;9.90;99.90;;;;;;5079336;28;20250;-79
2022/10/04 00:39:24;;;;;;;5.07;2.70;;;9.80;99.90;;;;;;5080114;28;20167;-80
2022/10/04 00:41:56;;;;;;;7.07;3.17;;;9.80;99.90;;;;;;5080103;28;20186;-79
2022/10/04 00:45:07;;;;;;;7.83;3.37;;;9.80;99.90;;;;;;5079427;28;20671;-79
2022/10/04 00:47:45;;;;;;;4.97;3.40;;;9.80;99.90;;;;;;5078329;28;20178;-80
2022/10/04 00:50:32;;;;;;;8.30;3.43;;;9.80;99.90;;;;;;5079735;28;20179;-80
2022/10/04 00:53:01;;;;;;;7.93;3.40;;;9.80;99.90;;;;;;5079371;28;20222;-80
2022/10/04 00:55:33;;;;;;;10.73;2.70;;;9.80;99.90;;;;;;5079861;28;20167;-80
2022/10/04 00:58:00;;;;;;;6.37;2.83;;;9.80;99.90;;;;;;5079433;28;20151;-79
2022/10/04 01:00:32;;;;;;;8.30;3.20;;;9.80;99.90;;;;;;5078629;28;20171;-80
2022/10/04 01:03:11;;;;;;;4.10;2.90;;;9.70;99.90;;;;;;5078063;28;20199;-80
2022/10/04 01:05:45;;;;;;;9.80;4.10;;;9.70;99.90;;;;;;5077303;28;20546;-79
2022/10/04 01:08:14;;;;;;;6.60;3.10;;;9.70;99.90;;;;;;5079164;28;20204;-80
2022/10/04 01:10:50;;;;;;;6.80;3.53;;;9.70;99.90;;;;;;5076966;28;20186;-79
2022/10/04 01:13:30;;;;;;;10.60;3.40;;;9.70;99.90;;;;;;5079665;28;20206;-80
2022/10/04 01:16:10;;;;;;;9.30;3.13;;;9.60;99.90;;;;;;5077722;28;20636;-80
2022/10/04 01:18:36;;;;;;;10.57;3.03;;;9.60;99.90;;;;;;5078325;28;20151;-80
2022/10/04 01:21:29;;;;;;;5.17;3.13;;;9.60;99.90;;;;;;5078378;28;20178;-80
2022/10/04 01:23:56;;;;;;;13.97;3.43;;;9.60;99.90;;;;;;5079125;28;20238;-80
2022/10/04 01:26:33;;;;;;;6.37;3.03;;;9.50;99.90;;;;;;5076054;28;20187;-79
2022/10/04 01:29:12;;;;;;;9.80;3.00;;;9.50;99.90;;;;;;5079644;28;20158;-80
2022/10/04 01:31:44;;;;;;;7.30;3.20;;;9.50;99.90;;;;;;5078275;28;20202;-80
2022/10/04 01:34:15;;;;;;;7.30;3.10;;;9.50;99.90;;;;;;5079335;28;20167;-80
2022/10/04 01:36:43;;;;;;;8.40;3.33;;;9.50;99.90;;;;;;5078666;28;20552;-80
2022/10/04 01:39:09;;;;;;;6.07;3.03;;;9.50;99.90;;;;;;5079141;28;20250;-80
2022/10/04 01:41:40;;;;;;;13.60;4.03;;;9.50;99.90;;;;;;5078623;28;20175;-79
2022/10/04 01:44:10;;;;;;;5.57;3.10;;;9.60;99.90;;;;;;5076563;28;20534;-80
2022/10/04 01:46:38;;;;;;;6.37;3.50;;;9.50;99.90;;;;;;5078801;28;20171;-80
2022/10/04 01:49:10;;;;;;;5.47;3.10;;;9.50;99.90;;;;;;5077214;28;20551;-80
2022/10/04 01:51:54;;;;;;;6.80;4.00;;;9.50;99.90;;;;;;5076526;28;20571;-79
2022/10/04 01:54:28;;;;;;;6.60;3.63;;;9.50;99.90;;;;;;5078641;28;20159;-80
2022/10/04 01:57:22;;;;;;;8.93;3.53;;;9.50;99.90;;;;;;5078868;28;20519;-80
2022/10/04 02:00:00;;;;;;;6.80;4.03;;;9.50;99.90;;;;;;5075263;28;20274;-79
2022/10/04 02:02:25;;;;;;;7.13;3.93;;;9.50;99.90;;;;;;5073055;28;20203;-79
2022/10/04 02:04:56;;;;;;;15.60;4.37;;;9.40;99.90;;;;;;5057144;28;20175;-80
2022/10/04 02:07:22;;;;;;;6.80;3.27;;;9.40;99.90;;;;;;5057844;28;20167;-79
2022/10/04 02:09:55;;;;;;;6.63;3.80;;;9.50;99.90;;;;;;5057451;28;20171;-80
2022/10/04 02:12:21;;;;;;;7.87;4.00;;;9.40;99.90;;;;;;5055304;28;20211;-79
2022/10/04 02:14:52;;;;;;;9.13;3.93;;;9.40;99.90;;;;;;5074994;28;20186;-80
2022/10/04 02:17:27;;;;;;;6.97;3.90;;;9.40;99.90;;;;;;5077608;28;20183;-80
2022/10/04 02:19:53;;;;;;;8.07;4.37;;;9.40;99.90;;;;;;5076228;28;20253;-79
2022/10/04 02:22:21;;;;;;;8.83;3.80;;;9.40;99.90;;;;;;5076651;28;20571;-80
2022/10/04 02:24:48;;;;;;;4.27;3.77;;;9.30;99.90;;;;;;5077058;28;20179;-80
2022/10/04 02:27:15;;;;;;;5.30;3.47;;;9.30;99.90;;;;;;5075402;28;20189;-80
2022/10/04 02:29:41;;;;;;;13.03;4.00;;;9.30;99.90;;;;;;5077192;28;20217;-79
2022/10/04 02:34:54;;;;;;;6.33;3.63;;;9.30;99.90;;;;;;5077041;28;20186;-80
2022/10/04 02:37:26;;;;;;;10.03;4.00;;;9.30;99.90;;;;;;5077250;28;20625;-79
2022/10/04 02:40:10;;;;;;;9.87;4.17;;;9.30;99.90;;;;;;5076314;28;20202;-79
2022/10/04 02:42:42;;;;;;;9.13;4.60;;;9.40;99.90;;;;;;5075686;28;20197;-80
2022/10/04 02:45:20;;;;;;;9.30;5.10;;;9.40;99.90;;;;;;5075750;28;20175;-79
2022/10/04 02:47:56;;;;;;;8.77;4.60;;;9.40;99.90;;;;;;5078529;28;20162;-79
2022/10/04 02:50:53;;;;;;;12.80;5.07;;;9.50;99.90;;;;;;5078881;28;20646;-79
2022/10/04 02:53:33;;;;;;;9.97;4.70;;;9.50;99.90;;;;;;5052597;28;20245;-80
2022/10/04 02:56:01;;;;;;;12.00;4.73;;;9.60;99.90;;;;;;5055823;28;20171;-80
2022/10/04 02:58:27;;;;;;;8.70;4.53;;;9.60;99.90;;;;;;5055175;28;20175;-80
2022/10/04 03:00:59;;;;;;;9.33;4.60;;;9.70;99.90;;;;;;5056595;28;20196;-79
2022/10/04 03:03:38;;;;;;;12.13;4.87;;;9.70;99.90;;;;;;5057590;28;20195;-80
2022/10/04 03:06:16;;;;;;;11.47;5.33;;;9.70;99.90;;;;;;5057486;28;20183;-80
2022/10/04 03:08:42;;;;;;;11.73;5.10;;;9.70;99.90;;;;;;5063156;28;20179;-80
2022/10/04 03:11:10;;;;;;;9.97;4.27;;;9.70;99.90;;;;;;5077974;28;20250;-80
2022/10/04 03:13:38;;;;;;;12.70;5.30;;;9.70;99.90;;;;;;5077934;28;20219;-79
2022/10/04 03:16:05;;;;;;;11.07;4.50;;;9.70;99.90;;;;;;5078419;28;20190;-80
2022/10/04 03:18:31;;;;;;;9.63;4.90;;;9.70;99.90;;;;;;5076513;28;20262;-80
2022/10/04 03:21:00;;;;;;;9.93;5.20;;;9.70;99.90;;;;;;5076348;28;20205;-79
2022/10/04 03:23:28;;;;;;;9.67;4.90;;;9.70;99.90;;;;;;5076204;28;20235;-80
2022/10/04 03:26:12;;;;;;;8.33;4.47;;;9.70;99.90;;;;;;5074935;28;20268;-79
2022/10/04 03:28:38;;;;;;;11.73;4.50;;;9.70;99.90;;;;;;5077315;28;20642;-80
2022/10/04 03:31:04;;;;;;;8.97;4.40;;;9.70;99.90;;;;;;5076801;28;20183;-80
2022/10/04 03:33:30;;;;;;;8.90;3.73;;;9.70;99.90;;;;;;5077246;28;20199;-80
2022/10/04 03:35:59;;;;;;;8.50;3.47;;;9.70;99.90;;;;;;5075610;28;20190;-80
2022/10/04 03:38:25;;;;;;;9.10;3.70;;;9.70;99.90;;;;;;5077068;28;20171;-80
2022/10/04 03:40:56;;;;;;;8.93;3.63;;;9.70;99.90;;;;;;5078101;28;20207;-80
2022/10/04 03:43:27;;;;;;;6.07;3.50;;;9.70;99.90;;;;;;5077129;28;20285;-79
2022/10/04 03:45:54;;;;;;;7.03;3.53;;;9.70;99.90;;;;;;5080392;28;20160;-80
2022/10/04 03:48:31;;;;;;;9.07;3.87;;;9.70;99.90;;;;;;5078631;28;20625;-80
2022/10/04 03:50:57;;;;;;;9.57;4.33;;;9.70;99.90;;;;;;5078407;28;20613;-80
2022/10/04 03:53:34;;;;;;;9.57;4.27;;;9.70;99.90;;;;;;5080051;28;20277;-80
2022/10/04 03:56:01;;;;;;;6.73;3.93;;;9.60;99.90;;;;;;5079904;28;20606;-79
2022/10/04 03:58:30;;;;;;;9.77;5.50;;;9.60;99.90;;;;;;5079644;28;20175;-80
2022/10/04 04:01:14;;;;;;;9.30;3.80;;;9.60;99.90;;;;;;5078990;28;20236;-79
2022/10/04 04:04:00;;;;;;;8.27;4.67;;;9.60;99.90;;;;;;5079273;28;20202;-79
2022/10/04 04:06:36;;;;;;;9.90;4.03;;;9.60;99.90;;;;;;5078389;28;20258;-79
2022/10/04 04:09:05;;;;;;;11.53;4.47;;;9.60;99.90;;;;;;5080022;28;20229;-79
2022/10/04 04:11:31;;;;;;;9.97;5.20;;;9.60;99.90;;;;;;5079925;28;20195;-79
2022/10/04 04:14:10;;;;;;;8.97;4.40;;;9.60;99.90;;;;;;5079265;28;20218;-79
2022/10/04 04:16:37;;;;;;;11.70;4.50;;;9.60;99.90;;;;;;5078313;28;20238;-80
2022/10/04 04:19:09;;;;;;;8.40;4.70;;;9.60;99.90;;;;;;5079824;28;20710;-80
2022/10/04 04:21:35;;;;;;;6.70;4.43;;;9.60;99.90;;;;;;5078062;28;20232;-79
2022/10/04 04:24:18;;;;;;;19.00;4.97;;;9.60;99.90;;;;;;5079590;28;20625;-79
2022/10/04 04:26:52;;;;;;;6.83;4.67;;;9.60;99.90;;;;;;5080777;28;20182;-79
2022/10/04 04:29:21;;;;;;;6.17;3.90;;;9.60;99.90;;;;;;5079093;28;20163;-79
2022/10/04 04:32:07;;;;;;;5.93;4.13;;;9.60;99.90;;;;;;5076811;28;20199;-79
2022/10/04 04:34:47;;;;;;;10.83;3.53;;;9.60;99.90;;;;;;5076026;28;20238;-79
2022/10/04 04:37:13;;;;;;;7.80;4.37;;;9.50;99.90;;;;;;5079731;28;20178;-80
2022/10/04 04:39:39;;;;;;;8.70;4.87;;;9.50;99.90;;;;;;5078780;28;20167;-79
2022/10/04 04:42:32;;;;;;;7.07;4.10;;;9.50;99.90;;;;;;5079244;28;20187;-79
2022/10/04 04:45:24;;;;;;;12.30;4.87;;;9.40;99.90;;;;;;5078533;28;20162;-79
2022/10/04 04:47:57;;;;;;;9.13;4.70;;;9.40;99.90;;;;;;5071105;28;20214;-79
2022/10/04 04:50:28;;;;;;;8.27;4.30;;;9.40;99.90;;;;;;5078071;28;20320;-80
2022/10/04 04:52:56;;;;;;;8.10;4.17;;;9.30;99.90;;;;;;5078491;28;20678;-79
2022/10/04 04:55:32;;;;;;;10.93;4.50;;;9.30;99.90;;;;;;5078055;28;20650;-79
2022/10/04 04:57:58;;;;;;;11.23;4.77;;;9.20;99.90;;;;;;5076808;28;20523;-79
2022/10/04 05:00:34;;;;;;;10.07;4.33;;;9.20;99.90;;;;;;5077702;28;20175;-80
2022/10/04 05:03:02;;;;;;;7.27;4.03;;;9.20;99.90;;;;;;5075711;28;20288;-79
2022/10/04 05:05:30;;;;;;;6.93;4.23;;;9.10;99.90;;;;;;5076714;28;20178;-79
2022/10/04 05:08:18;;;;;;;8.00;4.27;;;9.10;99.90;;;;;;5075291;28;20175;-79
2022/10/04 05:11:05;;;;;;;10.77;5.07;;;9.10;99.90;;;;;;5075105;28;20182;-78
2022/10/04 05:13:44;;;;;;;10.20;4.53;;;9.10;99.90;;;;;;5076109;28;20198;-79
2022/10/04 05:16:47;;;;;;;8.33;4.63;;;9.10;99.90;;;;;;5077077;28;20155;-79
2022/10/04 05:19:21;;;;;;;11.73;5.33;;;9.10;99.90;;;;;;5034162;28;20206;-79
2022/10/04 05:21:48;;;;;;;10.53;4.87;;;9.10;99.90;;;;;;5065732;28;20186;-79
2022/10/04 05:24:20;;;;;;;11.03;4.73;;;9.20;99.90;;;;;;5074685;28;20190;-79
2022/10/04 05:26:49;;;;;;;12.73;5.17;;;9.20;99.90;;;;;;5077575;28;20207;-78
2022/10/04 05:29:18;;;;;;;11.77;5.23;;;9.20;99.90;;;;;;5076830;28;20233;-79
2022/10/04 05:32:02;;;;;;;11.67;6.13;;;9.20;99.90;;;;;;5076108;28;20668;-78
2022/10/04 05:34:37;;;;;;;8.60;5.43;;;9.20;99.90;;;;;;5077744;28;20201;-79
2022/10/04 05:37:27;;;;;;;11.30;5.03;;;9.20;99.90;;;;;;5076949;28;20559;-80
2022/10/04 05:40:13;;;;;;;8.13;5.83;;;9.20;99.90;;;;;;5075151;28;20159;-80
2022/10/04 05:42:44;;;;;;;13.63;5.60;;;9.10;99.90;;;;;;5071790;28;20209;-79
2022/10/04 05:45:27;;;;;;;9.03;4.80;;;9.20;99.90;;;;;;5075502;28;20202;-80
2022/10/04 05:47:55;;;;;;;10.77;5.47;;;9.10;99.90;;;;;;5076207;28;20159;-80
2022/10/04 05:50:39;;;;;;;8.33;4.80;;;9.10;99.90;;;;;;5076430;28;20213;-80
2022/10/04 05:53:14;;;;;;;8.67;4.67;;;9.10;99.90;;;;;;5075176;28;20218;-80
2022/10/04 05:56:00;;;;;;;8.10;4.87;;;9.10;99.90;;;;;;5075113;28;20227;-80
2022/10/04 05:58:52;;;;;;;9.27;5.50;;;9.10;99.90;;;;;;5075304;28;20248;-80
2022/10/04 06:01:42;;;;;;;7.77;4.80;;;9.10;99.90;;;;;;5065773;28;20210;-80
2022/10/04 06:04:36;;;;;;;7.70;5.03;;;9.10;99.90;;;;;;5077286;28;20218;-80
2022/10/04 06:07:21;;;;;;;12.63;5.40;;;9.10;99.90;;;;;;5079982;28;20198;-80
2022/10/04 06:10:02;;;;;;;11.77;4.67;;;9.10;99.90;;;;;;5081810;28;20648;-79
2022/10/04 06:12:54;;;;;;;9.50;5.30;;;9.10;99.90;;;;;;5081065;28;20202;-80
2022/10/04 06:15:44;;;;;;;9.37;5.30;;;9.10;99.90;;;;;;5081617;28;20221;-80
2022/10/04 06:18:23;;;;;;;12.20;5.70;;;9.10;99.90;;;;;;5080121;28;20168;-79
2022/10/04 06:21:24;;;;;;;10.97;5.67;;;9.20;99.90;;;;;;5080234;28;20173;-80
2022/10/04 06:24:00;;;;;;;10.23;5.33;;;9.20;99.90;;;;;;5080012;28;20277;-80
2022/10/04 06:26:39;;;;;;;13.40;6.20;;;9.20;99.90;;;;;;5082708;28;20151;-79
2022/10/04 06:29:10;;;;;;;9.40;5.43;;;9.20;99.90;;;;;;5080249;28;20183;-80
2022/10/04 06:32:09;;;;;;;9.97;5.07;;;9.20;99.90;;;;;;5081401;28;20626;-79
2022/10/04 06:34:58;;;;;;;14.57;7.10;;;9.20;99.90;;;;;;5080728;28;20196;-80
2022/10/04 06:38:07;;;;;;;7.07;5.23;;;9.30;99.90;;;;;;5076457;28;20221;-82
2022/10/04 06:40:42;;;;;;;8.00;5.50;;;9.30;99.90;;;;;;5079497;28;20686;-82
2022/10/04 06:43:10;;;;;;;8.83;5.73;;;9.30;99.90;;;;;;5078072;28;20190;-80
2022/10/04 06:46:17;;;;;;;11.50;6.20;;;9.30;99.90;;;;;;5075005;28;20246;-79
2022/10/04 06:49:17;;;;;;;8.33;5.60;;;9.40;99.90;;;;;;5012113;28;20188;-79
2022/10/04 06:52:20;;;;;;;14.80;6.00;;;9.40;99.90;;;;;;5074880;28;20285;-81
2022/10/04 06:54:57;;;;;;;13.13;6.17;;;9.50;99.90;;;;;;5076282;28;20523;-79
2022/10/04 06:57:51;;;;;;;9.47;6.63;;;9.50;99.90;;;;;;5075101;28;20189;-80
2022/10/04 07:00:27;;;;;;;9.00;6.23;;;9.60;99.90;;;;;;5076760;28;20178;-80
2022/10/04 07:03:29;;;;;;;9.43;6.50;;;9.60;99.90;;;;;;5075064;28;20329;-79
2022/10/04 07:05:59;;;;;;;8.60;6.53;;;9.70;99.90;;;;;;4997887;28;20602;-80
2022/10/04 07:08:38;;;;;;;9.27;6.70;;;9.70;99.90;;;;;;5065759;28;20191;-79
2022/10/04 07:11:12;;;;;;;11.13;6.13;;;9.80;99.90;;;;;;5074624;28;20227;-80
2022/10/04 07:13:46;;;;;;;11.27;6.80;;;9.80;99.90;;;;;;5076899;28;20191;-79
2022/10/04 07:16:15;;;;;;;17.80;6.73;;;9.90;99.90;;;;;;5078041;28;20248;-80
2022/10/04 07:19:03;;;;;;;10.53;5.73;;;9.90;99.90;;;;;;5079553;28;20301;-79
2022/10/04 07:21:46;;;;;;;10.47;6.23;;;9.90;99.90;;;;;;5080866;28;20158;-80
2022/10/04 07:24:20;;;;;;;13.70;6.37;;;10.00;99.90;;;;;;5080817;28;20297;-80
2022/10/04 07:26:49;;;;;;;8.77;5.87;;;10.10;99.90;;;;;;5081069;28;20183;-79
2022/10/04 07:29:29;;;;;;;12.03;5.77;;;10.10;99.90;;;;;;5080886;28;20544;-80
2022/10/04 07:32:08;;;;;;;15.23;6.40;;;10.10;99.90;;;;;;5079256;28;20214;-80
2022/10/04 07:34:42;;;;;;;8.60;5.50;;;10.20;99.90;;;;;;5078500;28;20171;-80
2022/10/04 07:37:11;;;;;;;8.53;6.07;;;10.30;99.90;;;;;;5079238;28;20573;-80
2022/10/04 07:40:07;;;;;;;8.27;5.23;;;10.30;99.90;;;;;;5079685;28;20181;-80
2022/10/04 07:42:41;;;;;;;12.13;5.73;;;10.40;99.90;;;;;;5078617;28;20252;-79
2022/10/04 07:45:28;;;;;;;11.00;5.70;;;10.40;99.90;;;;;;5078642;28;20171;-79
2022/10/04 07:48:13;;;;;;;6.77;5.00;;;10.50;99.90;;;;;;5080072;28;20225;-79
2022/10/04 07:51:18;;;;;;;11.57;5.40;;;10.50;99.90;;;;;;5080196;28;20205;-79
2022/10/04 07:53:58;;;;;;;10.77;5.20;;;10.50;99.90;;;;;;5078421;28;20580;-80
2022/10/04 07:56:39;;;;;;;11.60;5.83;;;10.50;99.90;;;;;;5079628;28;20154;-79
2022/10/04 07:59:31;;;;;;;8.63;5.40;;;10.50;99.90;;;;;;5077988;28;20174;-79
2022/10/04 08:02:22;;;;;;;11.87;5.70;;;10.50;99.90;;;;;;5078048;28;20167;-80
2022/10/04 08:05:14;;;;;;;8.87;5.67;;;10.50;99.90;;;;;;5078544;28;20198;-79
2022/10/04 08:08:06;;;;;;;9.93;5.30;;;10.50;99.90;;;;;;5078419;28;20182;-80
2022/10/04 08:10:40;;;;;;;9.00;4.83;;;10.50;99.90;;;;;;5080273;28;20191;-80
2022/10/04 08:13:22;;;;;;;8.00;4.70;;;10.50;99.90;;;;;;5078652;28;20211;-79
2022/10/04 08:15:51;;;;;;;9.80;5.23;;;10.50;99.90;;;;;;5077526;28;20175;-80
2022/10/04 08:18:46;;;;;;;8.33;5.10;;;10.60;99.90;;;;;;5077515;28;20539;-80
2022/10/04 08:21:50;;;;;;;13.93;5.80;;;10.60;99.90;;;;;;5080981;28;20174;-79
2022/10/04 08:24:40;;;;;;;13.63;5.47;;;10.70;99.90;;;;;;5068932;28;20602;-80
2022/10/04 08:27:27;;;;;;;8.93;5.13;;;10.70;99.90;;;;;;5077891;28;20163;-81
2022/10/04 08:30:14;;;;;;;8.93;4.90;;;10.80;99.90;;;;;;5078120;28;20171;-81
2022/10/04 08:32:53;;;;;;;10.23;4.70;;;10.90;99.90;;;;;;5077090;28;20609;-80
2022/10/04 08:35:35;;;;;;;8.53;4.97;;;11.00;99.90;;;;;;5078125;28;20205;-81
2022/10/04 08:38:46;;;;;;;8.70;5.13;;;11.10;99.90;;;;;;5078236;28;20148;-80
2022/10/04 08:41:57;;;;;;;10.00;5.10;;;11.20;99.90;;;;;;5069595;28;20225;-79
2022/10/04 08:44:35;;;;;;;8.67;4.90;;;11.40;99.90;;;;;;5076468;28;20190;-79
2022/10/04 08:47:32;;;;;;;10.90;4.53;;;11.60;99.90;;;;;;5076772;28;20167;-79
2022/10/04 08:50:12;;;;;;;10.10;5.20;;;11.70;99.90;;;;;;5077004;28;20257;-80
2022/10/04 08:52:43;;;;;;;10.47;4.73;;;11.70;99.90;;;;;;5076404;28;20210;-80
2022/10/04 08:55:33;;;;;;;10.40;4.83;;;11.80;99.90;;;;;;5077139;28;20502;-80
2022/10/04 08:58:05;;;;;;;9.43;4.20;;;11.90;99.90;;;;;;5078508;28;20151;-80
2022/10/04 09:00:39;;;;;;;10.07;4.77;;;11.90;99.90;;;;;;5076446;28;20325;-80
2022/10/04 09:03:27;;;;;;;8.83;4.30;;;11.90;99.90;;;;;;5076138;28;20245;-80
2022/10/04 09:06:12;;;;;;;10.77;5.03;;;11.90;99.90;;;;;;5077329;28;20171;-80
2022/10/04 09:08:59;;;;;;;6.90;3.97;;;12.00;99.90;;;;;;5076038;28;20170;-80
2022/10/04 09:11:53;;;;;;;11.93;4.50;;;12.10;99.90;;;;;;5077661;28;20506;-80
2022/10/04 09:14:44;;;;;;;5.83;4.17;;;12.20;99.90;;;;;;5075795;28;20179;-80
2022/10/04 09:17:20;;;;;;;7.77;3.80;;;12.30;99.90;;;;;;5077194;28;20152;-80
2022/10/04 09:20:03;;;;;;;8.17;3.70;;;12.30;99.90;;;;;;5076900;28;20617;-80
2022/10/04 09:22:48;;;;;;;7.50;3.67;;;12.40;99.90;;;;;;5077125;28;20215;-80
2022/10/04 09:25:45;;;;;;;12.57;4.37;;;12.50;99.90;;;;;;5075819;28;20183;-80
2022/10/04 09:28:47;;;;;;;5.20;3.70;;;12.60;99.90;;;;;;5075986;28;20183;-80
2022/10/04 09:31:43;;;;;;;13.10;3.70;;;12.60;99.90;;;;;;5076706;28;20159;-80
2022/10/04 09:34:37;;;;;;;7.07;3.87;;;12.60;99.90;;;;;;5076963;28;20505;-80
2022/10/04 09:37:28;;;;;;;7.80;3.70;;;12.60;99.90;;;;;;5075317;28;20234;-80
2022/10/04 09:40:33;;;;;;;8.40;4.03;;;12.70;99.90;;;;;;5075732;28;20209;-80
2022/10/04 09:43:45;;;;;;;7.47;4.13;;;12.70;99.90;;;;;;5074852;28;20206;-80
2022/10/04 09:46:11;;;;;;;8.27;3.90;;;12.80;99.90;;;;;;5039585;28;20191;-80
2022/10/04 09:49:03;;;;;;;5.43;3.43;;;12.90;99.90;;;;;;5077300;28;20171;-80
2022/10/04 09:52:00;;;;;;;8.73;4.27;;;13.00;99.90;;;;;;5070983;28;20194;-81
2022/10/04 09:55:06;;;;;;;7.13;4.27;;;13.10;99.90;;;;;;5076456;28;20174;-80
2022/10/04 09:57:47;;;;;;;5.60;3.67;;;13.20;99.90;;;;;;5078583;28;20163;-82
2022/10/04 10:00:23;;;;;;;5.23;3.53;;;13.30;99.90;;;;;;5082951;28;20163;-81
2022/10/04 10:02:53;;;;;;;7.60;4.00;;;13.40;99.90;;;;;;5082102;28;20610;-81
2022/10/04 10:05:35;;;;;;;6.70;3.57;;;13.60;99.90;;;;;;5082477;28;20190;-81
2022/10/04 10:08:45;;;;;;;6.53;3.63;;;13.60;99.90;;;;;;5081138;28;20178;-81
2022/10/04 10:14:58;;;;;;;7.40;3.20;;;13.70;99.90;;;;;;5080586;28;20163;-77
2022/10/04 10:17:44;;;;;;;7.77;3.53;;;13.80;99.90;;;;;;5075394;28;20664;-81
2022/10/04 10:20:38;;;;;;;9.13;3.90;;;13.90;99.90;;;;;;5076481;28;20708;-80
2022/10/04 10:23:10;;;;;;;4.90;2.87;;;14.00;99.90;;;;;;5075590;28;20209;-81
2022/10/04 10:26:07;;;;;;;6.30;2.90;;;14.10;99.90;;;;;;5077150;28;20175;-81
2022/10/04 10:28:41;;;;;;;7.63;3.83;;;14.20;99.90;;;;;;5076215;28;20192;-81
2022/10/04 10:31:25;;;;;;;7.27;3.57;;;14.30;99.90;;;;;;5074107;28;20178;-81
2022/10/04 10:34:00;;;;;;;8.87;3.90;;;14.30;99.90;;;;;;5076383;28;20293;-80
2022/10/04 10:36:53;;;;;;;6.10;3.70;;;14.40;99.90;;;;;;5074961;28;20170;-81
2022/10/04 10:39:45;;;;;;;6.10;3.63;;;14.50;99.90;;;;;;5076132;28;20715;-79
2022/10/04 10:42:32;;;;;;;6.47;3.50;;;14.60;99.90;;;;;;5075880;28;20236;-79
2022/10/04 10:45:16;;;;;;;9.47;3.70;;;14.80;99.90;;;;;;5074076;28;20183;-79
2022/10/04 10:47:51;;;;;;;9.70;3.73;;;15.00;99.90;;;;;;5076152;28;20177;-79
2022/10/04 10:50:57;;;;;;;7.67;4.27;;;15.10;99.90;;;;;;5075269;28;20167;-79
2022/10/04 10:53:31;;;;;;;8.33;3.40;;;15.20;99.90;;;;;;5074926;28;20289;-79
2022/10/04 10:56:31;;;;;;;8.83;3.77;;;15.20;99.90;;;;;;5074650;28;20273;-80
2022/10/04 10:59:11;;;;;;;6.83;3.60;;;15.30;99.90;;;;;;5074436;28;20171;-79
2022/10/04 11:01:59;;;;;;;4.83;3.17;;;15.40;99.90;;;;;;5076525;28;20622;-80
2022/10/04 11:04:34;;;;;;;8.17;3.27;;;15.40;99.90;;;;;;5074663;28;20171;-79
2022/10/04 11:07:19;;;;;;;8.37;3.17;;;15.50;99.90;;;;;;5075611;28;20151;-80
2022/10/04 11:10:05;;;;;;;6.03;3.10;;;15.50;99.90;;;;;;5075565;28;20516;-78
2022/10/04 11:12:50;;;;;;;5.63;2.50;;;15.60;99.90;;;;;;5074080;28;20293;-79
2022/10/04 11:15:41;;;;;;;8.10;3.10;;;15.60;99.90;;;;;;5075351;28;20198;-80
2022/10/04 11:18:35;;;;;;;6.23;3.07;;;15.70;99.90;;;;;;5074575;28;20167;-79
2022/10/04 11:21:20;;;;;;;11.33;3.20;;;15.70;99.90;;;;;;5074459;28;20170;-80
2022/10/04 11:24:24;;;;;;;11.70;3.57;;;15.80;99.90;;;;;;5074743;28;20206;-80
2022/10/04 11:27:17;;;;;;;7.20;3.27;;;15.90;99.90;;;;;;5075821;28;20175;-79
2022/10/04 11:29:57;;;;;;;5.37;3.00;;;15.90;1.00;;;;;;5077641;28;20200;-79
2022/10/04 11:32:50;;;;;;;7.67;3.07;;;16.00;99.90;;;;;;5077938;28;20237;-78
2022/10/04 11:35:36;;;;;;;7.17;3.53;;;16.00;1.00;;;;;;5076052;28;20175;-78
2022/10/04 11:38:23;;;;;;;8.70;3.07;;;16.00;1.00;;;;;;5078021;28;20213;-78
2022/10/04 11:41:09;;;;;;;9.33;3.40;;;16.10;1.00;;;;;;5076934;28;20537;-79
2022/10/04 11:43:56;;;;;;;9.40;2.97;;;16.20;99.90;;;;;;5077861;28;20187;-78
2022/10/04 11:46:37;;;;;;;7.03;3.00;;;16.20;1.00;;;;;;5074460;28;20171;-78
2022/10/04 11:49:21;;;;;;;7.67;3.43;;;16.30;1.00;;;;;;5073195;28;20163;-77
2022/10/04 11:52:21;;;;;;;10.10;2.90;;;16.40;1.00;;;;;;5074558;28;20238;-83
2022/10/04 11:55:08;;;;;;;5.37;2.63;;;16.40;1.00;;;;;;5078733;28;20220;-79
2022/10/04 11:57:46;;;;;;;5.77;2.90;;;16.50;1.00;;;;;;5076775;28;20155;-79
2022/10/04 12:00:17;;;;;;;4.93;2.40;;;16.50;99.90;;;;;;5075122;28;20163;-79
2022/10/04 12:03:16;;;;;;;10.17;2.30;;;16.70;1.00;;;;;;5076516;28;20282;-79
2022/10/04 12:06:21;;;;;;;7.60;2.90;;;16.80;1.00;;;;;;5078238;28;20197;-78
2022/10/04 12:09:04;;;;;;;4.37;2.63;;;17.00;1.00;;;;;;5083338;28;20515;-79
2022/10/04 12:15:08;;;;;;;4.70;2.57;;;17.10;1.00;;;;;;5085869;28;20173;-79
2022/10/04 12:17:47;;;;;;;5.10;3.10;;;17.10;99.90;;;;;;5081307;28;20167;-80
2022/10/04 12:20:20;;;;;;;6.27;2.53;;;17.10;40.90;;;;;;5083344;28;20167;-79
2022/10/04 12:23:07;;;;;;;7.53;2.70;;;17.20;1.00;;;;;;5082102;28;20234;-79
2022/10/04 12:26:07;;;;;;;4.37;3.17;;;17.20;99.90;;;;;;5084783;28;20252;-79
2022/10/04 12:28:59;;;;;;;6.00;3.13;;;17.30;1.00;;;;;;5084464;28;20182;-78
2022/10/04 12:31:31;;;;;;;7.13;3.50;;;17.30;99.90;;;;;;5081079;28;20526;-79
2022/10/04 12:34:13;;;;;;;4.53;2.50;;;17.40;1.00;;;;;;5083772;28;20191;-79
2022/10/04 12:36:54;;;;;;;5.80;3.20;;;17.40;99.90;;;;;;5080786;28;20167;-79
2022/10/04 12:39:36;;;;;;;6.80;4.30;;;17.50;1.00;;;;;;5083345;28;20170;-79
2022/10/04 12:42:23;;;;;;;5.37;3.00;;;17.60;1.00;;;;;;5084435;28;20178;-79
2022/10/04 12:45:18;;;;;;;7.10;3.33;;;17.70;99.90;;;;;;5082801;28;20707;-79
2022/10/04 12:48:05;;;;;;;9.37;3.37;;;17.70;1.00;;;;;;5084984;28;20155;-78
2022/10/04 12:51:09;;;;;;;5.53;3.13;;;17.60;1.00;;;;;;5082155;28;20182;-79
2022/10/04 12:54:14;;;;;;;6.60;2.83;;;17.70;99.90;;;;;;5067660;28;20226;-79
2022/10/04 12:56:49;;;;;;;4.73;2.73;;;17.70;1.00;;;;;;5084279;28;20175;-79
2022/10/04 12:59:26;;;;;;;3.97;2.80;;;17.70;1.00;;;;;;5083028;28;20158;-79
2022/10/04 13:02:16;;;;;;;5.70;3.20;;;17.80;1.00;;;;;;5080722;28;20151;-79
2022/10/04 13:05:00;;;;;;;6.30;3.03;;;17.80;1.00;;;;;;5079602;28;20210;-78
2022/10/04 13:08:07;;;;;;;7.70;2.67;;;17.90;99.90;;;;;;5077039;28;20183;-78
2022/10/04 13:11:24;;;;;;;6.73;2.90;;;17.80;1.00;;;;;;5066207;28;20546;-78
2022/10/04 13:13:59;;;;;;;4.70;2.70;;;17.80;99.90;;;;;;5074057;28;20334;-81
2022/10/04 13:16:55;;;;;;;8.33;2.97;;;17.80;99.90;;;;;;5063658;28;20179;-78
2022/10/04 13:19:28;;;;;;;5.53;3.40;;;17.90;97.70;;;;;;5058052;28;20211;-78
2022/10/04 13:22:17;;;;;;;7.33;3.10;;;18.00;99.90;;;;;;5067829;28;20193;-78
2022/10/04 13:25:18;;;;;;;8.27;2.47;;;18.00;1.00;;;;;;5079074;28;20237;-78
2022/10/04 13:28:09;;;;;;;4.10;2.37;;;18.10;99.90;;;;;;5078487;28;20243;-79
2022/10/04 13:31:00;;;;;;;7.13;2.77;;;18.10;1.00;;;;;;5080092;28;20200;-79
2022/10/04 13:33:47;;;;;;;7.73;3.10;;;18.10;1.00;;;;;;5081870;28;20210;-78
2022/10/04 13:36:36;;;;;;;3.73;2.40;;;18.20;1.00;;;;;;5083105;28;20171;-79
2022/10/04 13:39:26;;;;;;;2.90;2.33;;;18.20;1.00;;;;;;5080606;28;20183;-79
2022/10/04 13:41:57;;;;;;;5.70;2.60;;;18.10;99.90;;;;;;5063747;28;20223;-79
2022/10/04 13:44:37;;;;;;;5.00;2.40;;;18.10;1.00;;;;;;5061908;28;20196;-78
2022/10/04 13:47:18;;;;;;;6.33;2.97;;;18.20;99.90;;;;;;5060975;28;20172;-78
2022/10/04 13:50:21;;;;;;;5.40;2.50;;;18.20;1.00;;;;;;5062364;28;20514;-78
2022/10/04 13:59:05;;;;;;;10.97;3.00;;;18.20;99.90;;;;;;5081696;28;20739;-79
2022/10/04 14:01:56;;;;;;;5.60;2.13;;;18.10;99.90;;;;;;5080088;28;20158;-78
2022/10/04 14:04:36;;;;;;;4.00;2.40;;;18.10;1.00;;;;;;5079945;28;20600;-78
2022/10/04 14:07:29;;;;;;;10.07;3.80;;;18.20;1.00;;;;;;5079560;28;20165;-79
2022/10/04 14:10:09;;;;;;;6.53;2.40;;;18.20;1.00;;;;;;5077695;28;20553;-80
2022/10/04 14:13:06;;;;;;;3.97;2.43;;;18.30;1.00;;;;;;5077948;28;20680;-78
2022/10/04 14:15:50;;;;;;;4.10;2.37;;;18.40;1.00;;;;;;5075544;28;20167;-78
2022/10/04 14:18:34;;;;;;;4.47;2.70;;;18.40;99.90;;;;;;5075095;28;20162;-78